Flight Track Log - Related Links

Times and Time Zones

All times are in EDT time to prevent confusion due to time zone crossing. See the CXA8048 flight status page for this flight to view local times or setup timezone preferences in your user account.

Time Position Orientation Groundspeed Altitude Reporting Facility
EDT Latitude Longitude Course Direction KTS MPH feet Rate Location/Type
Thu 10:11:20 AM 36.2446 120.3813 164° South 156 180 1,600  Level FlightAware ADS-B
Thu 10:11:35 AM 36.2343 120.3848 165° South 166 191 2,100 1,600 Climbing FlightAware ADS-B
Thu 10:11:50 AM 36.2219 120.3888 165° South 190 219 2,400 1,241 Climbing FlightAware ADS-B
Thu 10:12:04 AM 36.2097 120.3929 165° South 211 243 2,700 1,200 Climbing FlightAware ADS-B
Thu 10:12:25 AM 36.1880 120.4000 163° South 240 276 3,100 1,548 Climbing FlightAware ADS-B
Thu 10:12:35 AM 36.1775 120.4050 156° South 248 285 3,500 2,880 Climbing FlightAware ADS-B
Thu 10:12:50 AM 36.1616 120.4135 156° South 246 283 4,300 3,200 Climbing FlightAware ADS-B
Thu 10:13:05 AM 36.1457 120.4221 155° Southeast 247 284 5,100 2,710 Climbing FlightAware ADS-B
Thu 10:13:21 AM 36.1297 120.4309 155° Southeast 251 289 5,700 2,400 Climbing FlightAware ADS-B
Thu 10:13:35 AM 36.1149 120.4391 155° Southeast 258 297 6,300 2,483 Climbing FlightAware ADS-B
Thu 10:13:50 AM 36.0972 120.4490 155° Southeast 268 308 6,900 2,400 Climbing FlightAware ADS-B
Thu 10:14:05 AM 36.0794 120.4588 156° South 275 316 7,500 2,800 Climbing FlightAware ADS-B
Thu 10:14:20 AM 36.0620 120.4683 156° South 274 315 8,300 2,516 Climbing FlightAware ADS-B
Thu 10:14:36 AM 36.0450 120.4776 155° Southeast 283 326 8,800 1,742 Climbing FlightAware ADS-B
Thu 10:14:51 AM 36.0257 120.4883 155° Southeast 298 343 9,200 2,276 Climbing FlightAware ADS-B
Thu 10:15:05 AM 36.0069 120.4986 156° South 297 342 9,900 2,667 Climbing FlightAware ADS-B
Thu 10:15:36 AM 35.9690 120.5194 155° Southeast 304 350 11,200 2,500 Climbing FlightAware ADS-B
Thu 10:16:05 AM 35.9297 120.5410 156° South 311 358 12,400 2,500 Climbing FlightAware ADS-B
Thu 10:16:36 AM 35.8900 120.5626 155° Southeast 316 364 13,700 2,754 Climbing FlightAware ADS-B
Thu 10:17:06 AM 35.8492 120.5848 156° South 319 367 15,200 2,746 Climbing FlightAware ADS-B
Thu 10:17:35 AM 35.8084 120.6070 156° South 326 375 16,400 2,339 Climbing FlightAware ADS-B
Thu 10:18:05 AM 35.7673 120.6295 156° South 333 383 17,500 1,800 Climbing FlightAware ADS-B
Thu 10:18:35 AM 35.7228 120.6535 156° South 360 414 18,200 1,900 Climbing FlightAware ADS-B
Thu 10:19:05 AM 35.6759 120.6789 156° South 364 419 19,400 2,262 Climbing FlightAware ADS-B
Thu 10:19:36 AM 35.6298 120.7039 156° South 369 425 20,500 2,300 Climbing FlightAware ADS-B
Thu 10:20:05 AM 35.5825 120.7296 156° South 373 429 21,700 2,211 Climbing FlightAware ADS-B
Thu 10:20:33 AM 35.5410 120.7520 156° South 379 436 22,600 1,800 Climbing FlightAware ADS-B
Thu 10:21:05 AM 35.4884 120.7804 156° South 388 447 23,500 1,652 Climbing FlightAware ADS-B
Thu 10:21:42 AM 35.4276 120.8113 158° South 398 458 24,500 131 Climbing FlightAware ADS-B
Thu 10:52:24 AM 31.6197 122.5829 202° Southwest 457 526 27,600 100 Climbing FlightAware ADS-B (ZSSL)
Thu 10:52:44 AM 31.5823 122.5604 214° Southwest 449 517 27,600  Level FlightAware ADS-B (ZSSL)
Thu 10:53:13 AM 31.5324 122.5208 216° Southwest 447 514 27,600  Level FlightAware ADS-B (ZSSL)
Thu 10:53:32 AM 31.5027 122.4960 217° Southwest 447 514 27,600  Level FlightAware ADS-B (ZSSL)
Thu 10:54:17 AM 31.4238 122.4396 205° Southwest 452 520 27,600  Level FlightAware ADS-B (ZSSL)
Thu 10:54:58 AM 31.3389 122.4005 202° Southwest 452 520 27,600 -423 Level FlightAware ADS-B (ZSSL)
Thu 10:55:28 AM 31.2801 122.3742 202° Southwest 448 516 27,100 -1,364 Descending FlightAware ADS-B (ZSSL)
Thu 10:56:04 AM 31.2126 122.3442 201° Southwest 440 506 26,100 -1,619 Descending FlightAware ADS-B (ZSSL)
Thu 10:56:31 AM 31.1621 122.3217 201° Southwest 432 497 25,400 -1,627 Descending FlightAware ADS-B (ZSSL)
Thu 10:57:03 AM 31.1003 122.2944 201° Southwest 425 489 24,500 -1,645 Descending FlightAware ADS-B (ZSSL)
Thu 10:57:33 AM 31.0475 122.2709 201° Southwest 422 486 23,700 -1,700 Descending FlightAware ADS-B (ZSSL)
Thu 10:58:03 AM 30.9917 122.2472 197° South 423 487 22,800 -1,672 Descending FlightAware ADS-B (ZSSL)
Thu 10:58:34 AM 30.9340 122.2277 197° South 418 481 22,000 -1,400 Descending FlightAware ADS-B (ZSSL)
Thu 10:59:03 AM 30.8923 122.2137 197° South 412 474 21,400 -1,012 Descending FlightAware ADS-B (ZSSL)
Thu 10:59:57 AM 30.7888 122.1607 228° Southwest 395 455 20,600 -867 Descending FlightAware ADS-B (ZSSL)
Thu 11:00:26 AM 30.7605 122.1129 237° Southwest 388 447 20,200 -1,164 Descending FlightAware ADS-B (ZSSL)
Thu 11:01:04 AM 30.7229 122.0456 238° Southwest 384 442 19,300 -1,433 Descending FlightAware ADS-B (ZSSL)
Thu 11:01:33 AM 30.6952 121.9959 238° Southwest 376 433 18,600 -1,759 Descending FlightAware ADS-B (ZSSL)
Thu 11:02:02 AM 30.6719 121.9542 238° Southwest 373 429 17,600 -1,900 Descending FlightAware ADS-B (ZSSL)
Thu 11:02:33 AM 30.6382 121.8945 237° Southwest 366 421 16,700 -1,377 Descending FlightAware ADS-B (ZSSL)
Thu 11:03:03 AM 30.6102 121.8449 237° Southwest 362 417 16,200 -1,000 Descending FlightAware ADS-B (ZSSL)
Thu 11:03:27 AM 30.5897 121.8083 237° Southwest 360 414 15,800 -1,200 Descending FlightAware ADS-B (ZSSL)
Thu 11:04:08 AM 30.5511 121.7398 238° Southwest 358 412 14,900 -1,132 Descending FlightAware ADS-B (ZSSL)
Thu 11:05:13 AM 30.4931 121.6372 237° Southwest 349 402 13,800 -1,011 Descending FlightAware ADS-B (ZSSL)
Thu 11:05:43 AM 30.4664 121.5904 237° Southwest 350 403 13,300 -1,021 Descending FlightAware ADS-B (ZSSL)
Thu 11:06:47 AM 30.4106 121.4913 238° Southwest 349 402 12,200 -1,031 Descending FlightAware ADS-B (ZSSL)
Thu 11:09:00 AM 30.3710 121.2569 259° West  Level Estimated
Thu 11:10:00 AM 30.3531 121.1511 259° West  Level Estimated
Thu 11:11:00 AM 30.3350 121.0454 259° West  Level Estimated
Thu 11:12:00 AM 30.3169 120.9398 259° West  Level Estimated
Thu 11:13:00 AM 30.2987 120.8342 259° West  Level Estimated
Thu 11:14:00 AM 30.2803 120.7286 259° West  Level Estimated
Thu 11:15:00 AM 30.2619 120.6231 259° West  Level Estimated
Thu 11:16:00 AM 30.2435 120.5176 259° West  Level Estimated
Thu 11:17:00 AM 30.2283 120.4317 259° West  Level Estimated
Thu 11:18:00 AM 30.2283 120.4317 North  Level Estimated
Thu 11:19:00 AM 30.2283 120.4317 North  Level Estimated
Thu 11:20:00 AM 30.2283 120.4317 North  Level Estimated
Thu 11:21:00 AM 30.2283 120.4317 North  Level Estimated
Thu 11:22:00 AM 30.2283 120.4317 North  Level Estimated
Thu 11:23:00 AM 30.2283 120.4317 North  Level Estimated
Thu 11:24:00 AM 30.2283 120.4317 North  Level Estimated
Thu 11:25:00 AM 30.2283 120.4317 North  Level Estimated
Thu 11:26:00 AM 30.2283 120.4317 North  Level Estimated
Thu 11:27:00 AM 30.2283 120.4317 North  Level Estimated
Thu 11:28:00 AM 30.2283 120.4317 North  Level Estimated
Thu 11:29:00 AM 30.2283 120.4317 North  Level Estimated
Thu 11:30:00 AM 30.2283 120.4317 North  Level Estimated
Thu 11:31:00 AM 30.2283 120.4317 North  Level Estimated
Thu 11:32:00 AM 30.2283 120.4317 North  Level Estimated

Login

Don't have an account? Register now (free) for customized features, flight alerts, and more!